Time;durP1;ratioP1;P1;durP2;ratioP2;P2;SDS_P1;SDS_P2;PMS_P1;PMS_P2;Temp;Humidity;BMP_temperature;BMP_pressure;BME280_temperature;BME280_humidity;BME280_pressure;Samples;Min_cycle;Max_cycle;Signal;HPM_P1;HPM_P2
2022/10/02 00:00:37;;;;;;;6.20;1.08;;;12.20;99.90;;;;;;4892448;28;20998;-75
2022/10/02 00:03:26;;;;;;;4.78;1.15;;;12.10;99.90;;;;;;4921415;28;20071;-75
2022/10/02 00:06:02;;;;;;;10.35;1.67;;;12.20;99.90;;;;;;5009357;28;20119;-74
2022/10/02 00:08:45;;;;;;;4.45;1.50;;;12.20;99.90;;;;;;4996998;28;20324;-74
2022/10/02 00:11:26;;;;;;;5.90;1.42;;;12.20;99.90;;;;;;4908254;28;20327;-75
2022/10/02 00:14:05;;;;;;;10.75;1.58;;;12.20;99.90;;;;;;4901512;28;20038;-74
2022/10/02 00:16:54;;;;;;;5.38;1.35;;;12.20;99.90;;;;;;4904574;28;20255;-74
2022/10/02 00:19:36;;;;;;;8.05;1.95;;;12.20;99.90;;;;;;4903160;28;20442;-74
2022/10/02 00:22:29;;;;;;;4.65;0.90;;;12.20;99.90;;;;;;4993789;28;20045;-74
2022/10/02 00:25:16;;;;;;;6.22;2.15;;;12.20;99.90;;;;;;5008686;28;20037;-75
2022/10/02 00:28:21;;;;;;;5.30;1.20;;;12.10;99.90;;;;;;4904967;28;21036;-75
2022/10/02 00:31:19;;;;;;;9.25;1.60;;;12.20;99.90;;;;;;4900170;28;20989;-74
2022/10/02 00:33:59;;;;;;;4.97;1.17;;;12.20;99.90;;;;;;4816027;28;20472;-74
2022/10/02 00:36:45;;;;;;;4.68;1.40;;;12.30;99.90;;;;;;4902694;28;20049;-74
2022/10/02 00:39:26;;;;;;;7.65;1.38;;;12.30;99.90;;;;;;5026852;28;20053;-74
2022/10/02 00:42:23;;;;;;;4.05;1.10;;;12.30;99.90;;;;;;5016373;28;20059;-74
2022/10/02 00:45:00;;;;;;;7.10;1.17;;;12.20;99.90;;;;;;5016727;28;20041;-75
2022/10/02 00:47:42;;;;;;;5.22;1.42;;;12.40;99.90;;;;;;5019349;28;20046;-74
2022/10/02 00:50:20;;;;;;;7.10;1.42;;;12.30;99.90;;;;;;5028074;28;20398;-74
2022/10/02 00:52:52;;;;;;;9.15;1.30;;;12.40;99.90;;;;;;5016835;28;20050;-74
2022/10/02 00:56:17;;;;;;;8.43;1.13;;;12.40;99.90;;;;;;5052217;28;20048;-71
2022/10/02 00:59:21;;;;;;;8.63;1.40;;;12.40;99.90;;;;;;4959922;28;20540;-75
2022/10/02 01:02:09;;;;;;;5.40;1.38;;;12.40;99.90;;;;;;5012407;28;20132;-75
2022/10/02 01:04:46;;;;;;;7.43;1.02;;;12.40;99.90;;;;;;4990703;28;20498;-74
2022/10/02 01:07:19;;;;;;;8.98;1.20;;;12.40;99.90;;;;;;4904443;28;20485;-74
2022/10/02 01:09:48;;;;;;;5.22;1.10;;;12.40;99.90;;;;;;4884117;28;20390;-74
2022/10/02 01:12:15;;;;;;;7.45;1.38;;;12.40;99.90;;;;;;5029570;28;20084;-74
2022/10/02 01:14:41;;;;;;;5.60;0.90;;;12.30;99.90;;;;;;5033271;28;20049;-74
2022/10/02 01:17:21;;;;;;;;;;;12.40;99.90;;;;;;5033211;28;20038;-74
2022/10/02 01:19:48;;;;;;;7.03;1.13;;;12.30;99.90;;;;;;5047235;28;19924;-74
2022/10/02 01:22:39;;;;;;;4.57;1.00;;;12.40;99.90;;;;;;5034840;28;20521;-74
2022/10/02 01:25:06;;;;;;;4.28;1.20;;;12.30;99.90;;;;;;5030420;28;20458;-74
2022/10/02 01:27:33;;;;;;;3.38;1.15;;;12.30;99.90;;;;;;5037914;28;20136;-74
2022/10/02 01:30:13;;;;;;;3.38;0.90;;;12.30;99.90;;;;;;5010756;28;20453;-74
2022/10/02 01:32:46;;;;;;;5.28;1.63;;;12.30;99.90;;;;;;5008335;28;20480;-77
2022/10/02 01:35:13;;;;;;;3.50;0.63;;;12.30;99.90;;;;;;4861999;28;20487;-74
2022/10/02 01:37:56;;;;;;;5.72;1.02;;;12.30;99.90;;;;;;4852473;28;20365;-74
2022/10/02 01:40:26;;;;;;;3.72;0.90;;;12.30;99.90;;;;;;4979036;28;20065;-74
2022/10/02 01:43:17;;;;;;;6.93;1.00;;;12.30;99.90;;;;;;5024049;28;20107;-74
2022/10/02 01:46:22;;;;;;;6.43;1.20;;;12.30;99.90;;;;;;4894168;28;20381;-75
2022/10/02 01:49:34;;;;;;;6.30;1.13;;;12.20;99.90;;;;;;4895301;28;20335;-75
2022/10/02 01:52:49;;;;;;;5.32;1.13;;;12.20;99.90;;;;;;5030209;28;20080;-73
2022/10/02 01:55:41;;;;;;;6.30;1.40;;;12.20;99.90;;;;;;4890938;28;20612;-74
2022/10/02 01:58:32;;;;;;;5.18;0.80;;;12.20;99.90;;;;;;4908864;28;20037;-73
2022/10/02 02:00:58;;;;;;;4.63;0.77;;;12.10;99.90;;;;;;5015004;28;20522;-74
2022/10/02 02:04:01;;;;;;;5.05;1.05;;;12.10;99.90;;;;;;4952329;28;20572;-74
2022/10/02 02:06:40;;;;;;;4.13;0.80;;;12.10;99.90;;;;;;5026096;28;20095;-75
2022/10/02 02:09:17;;;;;;;5.75;1.15;;;12.10;99.90;;;;;;4956561;28;20425;-79
2022/10/02 02:12:11;;;;;;;7.22;1.33;;;12.00;99.90;;;;;;4879065;28;20488;-73
2022/10/02 02:14:46;;;;;;;7.20;1.80;;;12.00;99.90;;;;;;4889212;28;20408;-75
2022/10/02 02:17:25;;;;;;;11.07;1.48;;;12.00;99.90;;;;;;5093554;22;20131;-76
2022/10/02 02:20:23;;;;;;;9.20;0.85;;;12.00;99.90;;;;;;5042336;28;20339;-77
2022/10/02 02:23:20;;;;;;;7.57;1.00;;;12.00;99.90;;;;;;4914020;28;20417;-78
2022/10/02 02:26:06;;;;;;;3.88;0.90;;;12.10;99.90;;;;;;4904847;28;20364;-80
2022/10/02 02:28:52;;;;;;;4.90;1.20;;;12.00;99.90;;;;;;4892011;28;20155;-77
2022/10/02 02:31:31;;;;;;;7.88;0.98;;;12.00;99.90;;;;;;4886369;28;20037;-76
2022/10/02 02:34:17;;;;;;;5.70;1.13;;;12.00;99.90;;;;;;4888910;28;20183;-78
2022/10/02 02:36:55;;;;;;;5.50;0.82;;;12.00;99.90;;;;;;4953574;28;20049;-77
2022/10/02 02:39:37;;;;;;;4.95;1.02;;;12.10;99.90;;;;;;5069216;28;20071;-76
2022/10/02 02:42:10;;;;;;;5.95;0.90;;;12.00;99.90;;;;;;5048197;28;20040;-76
2022/10/02 02:45:14;;;;;;;5.63;1.80;;;12.10;99.90;;;;;;5069156;28;20075;-77
2022/10/02 02:47:52;;;;;;;6.70;1.15;;;12.00;99.90;;;;;;5048877;28;20048;-77
2022/10/02 02:50:37;;;;;;;5.88;0.73;;;12.10;99.90;;;;;;5058342;28;20076;-75
2022/10/02 02:53:08;;;;;;;6.78;0.90;;;12.10;99.90;;;;;;5056830;28;20045;-75
2022/10/02 02:55:39;;;;;;;8.57;1.13;;;12.10;99.90;;;;;;5058054;28;20063;-75
2022/10/02 02:58:09;;;;;;;9.00;1.23;;;12.10;99.90;;;;;;5064782;28;20254;-74
2022/10/02 03:00:35;;;;;;;7.07;0.90;;;12.10;99.90;;;;;;5057276;28;20119;-74
2022/10/02 03:03:01;;;;;;;5.40;0.85;;;12.10;99.90;;;;;;5064889;28;20112;-75
2022/10/02 03:05:28;;;;;;;4.28;0.93;;;12.10;99.90;;;;;;5052271;28;20074;-74
2022/10/02 03:07:58;;;;;;;10.20;1.85;;;12.10;99.90;;;;;;5065693;28;20048;-74
2022/10/02 03:10:47;;;;;;;9.93;1.88;;;12.10;99.90;;;;;;5062782;28;20067;-75
2022/10/02 03:13:43;;;;;;;3.65;1.02;;;12.20;99.90;;;;;;5010841;28;20123;-75
2022/10/02 03:16:11;;;;;;;4.72;1.02;;;12.20;99.90;;;;;;5053546;28;20067;-74
2022/10/02 03:19:02;;;;;;;5.35;0.80;;;12.30;99.90;;;;;;5053970;28;20058;-76
2022/10/02 03:21:56;;;;;;;5.88;0.93;;;12.30;99.90;;;;;;5059953;28;20077;-76
2022/10/02 03:24:35;;;;;;;6.10;1.38;;;12.30;99.90;;;;;;5052060;28;20044;-75
2022/10/02 03:27:09;;;;;;;8.35;1.80;;;12.30;99.90;;;;;;5055285;28;20533;-75
2022/10/02 03:29:43;;;;;;;7.28;1.05;;;12.30;99.90;;;;;;5061808;28;20045;-74
2022/10/02 03:32:11;;;;;;;9.90;1.10;;;12.30;99.90;;;;;;5053319;28;20100;-74
2022/10/02 03:34:38;;;;;;;6.10;0.60;;;12.30;99.90;;;;;;5061446;28;20090;-74
2022/10/02 03:37:04;;;;;;;6.43;1.00;;;12.40;99.90;;;;;;5063192;28;20268;-74
2022/10/02 03:39:29;;;;;;;6.43;0.80;;;12.30;99.90;;;;;;5058072;28;20322;-74
2022/10/02 03:41:55;;;;;;;8.10;1.33;;;12.30;99.90;;;;;;5055620;28;20593;-75
2022/10/02 03:44:21;;;;;;;8.35;1.40;;;12.30;99.90;;;;;;5057157;28;20037;-75
2022/10/02 03:46:46;;;;;;;9.53;2.03;;;12.30;99.90;;;;;;5059176;28;20525;-75
2022/10/02 03:49:12;;;;;;;6.40;1.20;;;12.30;99.90;;;;;;5060348;28;20286;-75
2022/10/02 03:51:38;;;;;;;8.83;1.17;;;12.30;99.90;;;;;;5064909;28;20282;-75
2022/10/02 03:54:12;;;;;;;5.67;1.27;;;12.30;99.90;;;;;;5059744;28;20052;-74
2022/10/02 03:57:02;;;;;;;6.75;0.93;;;12.20;99.90;;;;;;5062218;28;20043;-75
2022/10/02 03:59:33;;;;;;;10.10;1.98;;;12.20;99.90;;;;;;5064557;28;20040;-75
2022/10/02 04:02:03;;;;;;;7.28;1.17;;;12.20;99.90;;;;;;5059367;28;20051;-75
2022/10/02 04:04:51;;;;;;;5.15;1.00;;;12.20;99.90;;;;;;5071270;28;20133;-76
2022/10/02 04:07:19;;;;;;;;;;;12.20;99.90;;;;;;5061425;28;20666;-74
2022/10/02 04:10:14;;;;;;;8.07;0.95;;;12.10;99.90;;;;;;5049032;28;20302;-74
2022/10/02 04:12:45;;;;;;;5.40;1.48;;;12.10;99.90;;;;;;5048868;28;20057;-74
2022/10/02 04:15:27;;;;;;;5.75;1.60;;;12.00;99.90;;;;;;5049800;28;20083;-75
2022/10/02 04:18:05;;;;;;;6.35;0.85;;;12.00;99.90;;;;;;5060390;28;20157;-74
2022/10/02 04:20:51;;;;;;;8.65;1.17;;;12.10;99.90;;;;;;5060372;28;20652;-74
2022/10/02 04:23:22;;;;;;;9.27;1.10;;;12.00;99.90;;;;;;5055123;28;20059;-74
2022/10/02 04:25:58;;;;;;;9.63;1.35;;;12.00;99.90;;;;;;5052137;28;20318;-74
2022/10/02 04:28:34;;;;;;;6.78;1.17;;;12.00;99.90;;;;;;5054645;28;20106;-74
2022/10/02 04:31:01;;;;;;;6.88;1.02;;;12.00;99.90;;;;;;5051652;28;20058;-77
2022/10/02 04:33:27;;;;;;;6.15;1.25;;;12.00;99.90;;;;;;5064551;28;20083;-77
2022/10/02 04:36:13;;;;;;;4.32;1.13;;;12.00;99.90;;;;;;5059957;28;20494;-76
2022/10/02 04:39:00;;;;;;;6.85;1.60;;;11.90;99.90;;;;;;5057344;28;20587;-75
2022/10/02 04:41:45;;;;;;;4.13;0.95;;;11.90;99.90;;;;;;5056783;28;20076;-75
2022/10/02 04:44:16;;;;;;;11.13;1.17;;;11.90;99.90;;;;;;5049498;28;20101;-74
2022/10/02 04:47:29;;;;;;;7.35;1.33;;;11.80;99.90;;;;;;5055484;28;20426;-75
2022/10/02 04:50:17;;;;;;;4.50;1.00;;;11.80;99.90;;;;;;5051219;28;20106;-74
2022/10/02 04:52:59;;;;;;;;;;;11.80;99.90;;;;;;5048794;28;20045;-74
2022/10/02 04:55:33;;;;;;;5.47;1.45;;;11.80;99.90;;;;;;5064670;28;19929;-74
2022/10/02 04:58:05;;;;;;;6.40;0.90;;;11.80;99.90;;;;;;5060507;28;20120;-75
2022/10/02 05:00:44;;;;;;;5.25;1.08;;;11.80;99.90;;;;;;5033090;28;20155;-75
2022/10/02 05:03:31;;;;;;;6.45;1.30;;;11.80;99.90;;;;;;5055297;28;20509;-75
2022/10/02 05:05:57;;;;;;;8.45;1.20;;;11.80;99.90;;;;;;5055969;28;20130;-75
2022/10/02 05:08:53;;;;;;;18.33;2.20;;;11.70;99.90;;;;;;5059393;28;20041;-75
2022/10/02 05:11:47;;;;;;;8.90;1.20;;;11.70;99.90;;;;;;5048273;28;20097;-74
2022/10/02 05:14:36;;;;;;;10.10;1.45;;;11.70;99.90;;;;;;5051180;28;20037;-75
2022/10/02 05:17:14;;;;;;;2.92;0.65;;;11.70;99.90;;;;;;5059958;28;20040;-75
2022/10/02 05:19:58;;;;;;;5.47;0.98;;;11.70;99.90;;;;;;5064073;28;20090;-74
2022/10/02 05:23:01;;;;;;;7.57;1.33;;;11.70;99.90;;;;;;5055708;28;20064;-76
2022/10/02 05:25:54;;;;;;;4.43;0.98;;;11.70;99.90;;;;;;5052874;28;20045;-75
2022/10/02 05:28:38;;;;;;;7.05;1.02;;;11.60;99.90;;;;;;5062364;28;20112;-75
2022/10/02 05:31:52;;;;;;;7.13;0.88;;;11.60;99.90;;;;;;5055234;28;20102;-75
2022/10/02 05:34:36;;;;;;;5.22;1.00;;;11.60;99.90;;;;;;5064018;28;20048;-74
2022/10/02 05:37:36;;;;;;;5.80;1.10;;;11.60;99.90;;;;;;5051770;28;20043;-75
2022/10/02 05:40:25;;;;;;;5.97;1.48;;;11.60;99.90;;;;;;5056029;28;20482;-74
2022/10/02 05:43:00;;;;;;;5.85;0.93;;;11.60;99.90;;;;;;5057569;28;20063;-75
2022/10/02 05:45:33;;;;;;;6.80;1.17;;;11.50;99.90;;;;;;5061138;28;20415;-75
2022/10/02 05:48:14;;;;;;;11.48;1.75;;;11.50;99.90;;;;;;5059966;28;20041;-75
2022/10/02 05:50:41;;;;;;;4.57;0.90;;;11.50;99.90;;;;;;5059322;28;20326;-74
2022/10/02 05:53:31;;;;;;;7.00;1.08;;;11.50;99.90;;;;;;5051485;28;20445;-76
2022/10/02 05:56:03;;;;;;;14.52;1.58;;;11.50;99.90;;;;;;5056319;28;20442;-75
2022/10/02 05:58:46;;;;;;;4.78;0.98;;;11.50;99.90;;;;;;5062248;28;20154;-74
2022/10/02 06:01:41;;;;;;;4.47;1.02;;;11.50;99.90;;;;;;5064506;28;20044;-74
2022/10/02 06:04:13;;;;;;;6.75;1.13;;;11.50;99.90;;;;;;5051274;28;20116;-75
2022/10/02 06:06:42;;;;;;;5.85;1.05;;;11.50;99.90;;;;;;5054975;28;20044;-75
2022/10/02 06:09:14;;;;;;;8.75;1.63;;;11.50;99.90;;;;;;5055760;28;20052;-76
2022/10/02 06:11:57;;;;;;;3.47;1.05;;;11.50;99.90;;;;;;5053233;28;20045;-76
2022/10/02 06:14:34;;;;;;;5.95;1.52;;;11.50;99.90;;;;;;5078330;28;20282;-76
2022/10/02 06:17:01;;;;;;;5.75;1.13;;;11.50;99.90;;;;;;5057808;28;20064;-75
2022/10/02 06:19:41;;;;;;;3.97;1.70;;;11.50;99.90;;;;;;5063216;28;20049;-75
2022/10/02 06:22:23;;;;;;;7.93;1.20;;;11.50;99.90;;;;;;5059098;28;20187;-76
2022/10/02 06:25:03;;;;;;;8.43;1.23;;;11.50;99.90;;;;;;5061879;28;20158;-76
2022/10/02 06:27:43;;;;;;;8.57;1.20;;;11.60;99.90;;;;;;5064648;28;20120;-75
2022/10/02 06:30:13;;;;;;;7.43;1.30;;;11.50;99.90;;;;;;5055362;28;20662;-74
2022/10/02 06:33:04;;;;;;;9.73;1.10;;;11.60;99.90;;;;;;5056579;28;20032;-75
2022/10/02 06:35:35;;;;;;;6.90;1.23;;;11.70;99.90;;;;;;5057541;28;20121;-75
2022/10/02 06:38:34;;;;;;;16.55;1.60;;;11.70;99.90;;;;;;5054773;28;20041;-74
2022/10/02 06:41:19;;;;;;;7.57;1.48;;;11.80;99.90;;;;;;5054365;28;20048;-75
2022/10/02 06:44:06;;;;;;;7.88;1.02;;;11.90;99.90;;;;;;5064049;28;20040;-75
2022/10/02 06:46:40;;;;;;;6.38;0.73;;;11.90;99.90;;;;;;5031556;28;20045;-75
2022/10/02 06:49:15;;;;;;;6.60;1.20;;;12.00;99.90;;;;;;5059540;28;20040;-74
2022/10/02 06:51:56;;;;;;;11.77;1.80;;;12.00;99.90;;;;;;5057216;28;20080;-75
2022/10/02 06:54:31;;;;;;;8.35;1.40;;;12.00;99.90;;;;;;5040285;28;20041;-75
2022/10/02 06:57:29;;;;;;;6.05;0.98;;;12.10;99.90;;;;;;5057549;28;20048;-75
2022/10/02 07:00:11;;;;;;;8.70;1.67;;;12.10;99.90;;;;;;5055217;28;20036;-75
2022/10/02 07:02:58;;;;;;;11.73;1.95;;;12.10;99.90;;;;;;5056891;28;20125;-75
2022/10/02 07:05:57;;;;;;;14.40;2.00;;;12.10;99.90;;;;;;5048864;28;20060;-75
2022/10/02 07:08:56;;;;;;;6.65;1.60;;;12.10;99.90;;;;;;5051727;28;20037;-75
2022/10/02 07:11:31;;;;;;;11.90;2.00;;;12.10;99.90;;;;;;5054767;28;20143;-75
2022/10/02 07:14:03;;;;;;;6.13;1.25;;;12.10;99.90;;;;;;5056064;28;20388;-75
2022/10/02 07:17:04;;;;;;;8.32;2.15;;;12.20;99.90;;;;;;5062947;28;20048;-75
2022/10/02 07:20:07;;;;;;;8.02;2.42;;;12.20;99.90;;;;;;5053247;28;20037;-75
2022/10/02 07:23:11;;;;;;;9.45;2.80;;;12.20;99.90;;;;;;5035253;28;20044;-74
2022/10/02 07:26:09;;;;;;;10.20;1.30;;;12.40;99.90;;;;;;5050346;28;20080;-75
2022/10/02 07:29:13;;;;;;;7.72;2.92;;;12.40;99.90;;;;;;5040989;28;20036;-75
2022/10/02 07:31:57;;;;;;;9.35;1.55;;;12.50;99.90;;;;;;5057236;28;20203;-75
2022/10/02 07:34:43;;;;;;;3.67;1.10;;;12.50;99.90;;;;;;5056475;28;20032;-74
2022/10/02 07:37:14;;;;;;;7.25;0.93;;;12.50;99.90;;;;;;5054532;28;20132;-75
2022/10/02 07:40:21;;;;;;;4.03;1.38;;;12.50;99.90;;;;;;5051763;28;20043;-74
2022/10/02 07:43:11;;;;;;;7.65;1.13;;;12.60;99.90;;;;;;5033780;28;20040;-74
2022/10/02 07:46:05;;;;;;;5.88;1.27;;;12.70;99.90;;;;;;5047177;28;20044;-77
2022/10/02 07:48:51;;;;;;;8.85;1.42;;;12.70;99.90;;;;;;5060828;28;20052;-75
2022/10/02 07:51:46;;;;;;;7.00;1.55;;;12.80;99.90;;;;;;5045094;28;20056;-75
2022/10/02 07:54:37;;;;;;;6.20;1.17;;;12.80;99.90;;;;;;5052665;28;20032;-76
2022/10/02 07:57:14;;;;;;;8.02;2.28;;;12.80;99.90;;;;;;5061717;28;20033;-75
2022/10/02 07:59:42;;;;;;;9.55;1.73;;;12.90;99.90;;;;;;5053847;28;20130;-75
2022/10/02 08:02:39;;;;;;;8.00;1.63;;;13.10;99.90;;;;;;5059421;28;20033;-75
2022/10/02 08:05:32;;;;;;;9.25;1.58;;;13.10;99.90;;;;;;5044747;28;20064;-75
2022/10/02 08:08:28;;;;;;;5.93;1.73;;;13.30;99.90;;;;;;5059417;28;20127;-75
2022/10/02 08:11:28;;;;;;;6.55;1.85;;;13.40;99.90;;;;;;5036332;28;20033;-76
2022/10/02 08:14:01;;;;;;;7.20;1.95;;;13.50;99.90;;;;;;5052155;28;20094;-74
2022/10/02 08:16:33;;;;;;;7.40;1.27;;;13.50;99.90;;;;;;5121936;22;20106;-74
2022/10/02 08:19:04;;;;;;;13.43;1.58;;;13.60;99.90;;;;;;5056059;28;20441;-73
2022/10/02 08:21:39;;;;;;;10.80;3.15;;;13.60;99.90;;;;;;5069251;28;20044;-73
2022/10/02 08:24:19;;;;;;;11.00;1.98;;;13.60;99.90;;;;;;5069159;28;20450;-73
2022/10/02 08:26:58;;;;;;;4.95;1.23;;;13.70;99.90;;;;;;5079134;28;20076;-73
2022/10/02 08:29:33;;;;;;;7.35;1.50;;;13.70;99.90;;;;;;5078553;28;20050;-71
2022/10/02 08:31:59;;;;;;;9.98;1.10;;;13.80;99.90;;;;;;5074687;28;20040;-72
2022/10/02 08:34:26;;;;;;;7.00;1.27;;;13.90;99.90;;;;;;5068905;28;20047;-71
2022/10/02 08:37:17;;;;;;;6.22;1.25;;;13.90;99.90;;;;;;5073073;28;20512;-71
2022/10/02 08:39:46;;;;;;;8.85;1.85;;;14.00;99.90;;;;;;5068642;28;20040;-71
2022/10/02 08:42:55;;;;;;;6.97;1.25;;;14.00;99.90;;;;;;5074124;28;20405;-71
2022/10/02 08:46:07;;;;;;;10.07;1.70;;;14.10;99.90;;;;;;5073278;28;20044;-71
2022/10/02 08:48:57;;;;;;;3.78;1.20;;;14.10;99.90;;;;;;5074784;28;20044;-71
2022/10/02 08:51:50;;;;;;;6.53;1.65;;;14.00;99.90;;;;;;5080842;28;20063;-70
2022/10/02 08:54:28;;;;;;;5.70;1.20;;;14.10;99.90;;;;;;5074878;28;20108;-72
2022/10/02 08:57:29;;;;;;;6.78;1.20;;;14.10;99.90;;;;;;5069018;28;20035;-72
2022/10/02 09:00:07;;;;;;;6.40;1.25;;;14.20;99.90;;;;;;5042355;28;20079;-72
2022/10/02 09:02:56;;;;;;;4.20;1.27;;;14.20;99.90;;;;;;5059282;28;20060;-73
2022/10/02 09:06:01;;;;;;;8.00;1.88;;;14.30;99.90;;;;;;5067355;28;20055;-72
2022/10/02 09:08:56;;;;;;;6.57;1.30;;;14.40;99.90;;;;;;5073148;28;20044;-73
2022/10/02 09:11:59;;;;;;;10.68;1.70;;;14.60;99.90;;;;;;5070355;28;20673;-70
2022/10/02 09:14:43;;;;;;;10.48;1.45;;;14.70;99.90;;;;;;5071097;28;20496;-70
2022/10/02 09:17:15;;;;;;;7.60;1.35;;;14.70;99.90;;;;;;5085339;28;20196;-70
2022/10/02 09:19:40;;;;;;;13.10;1.95;;;14.70;99.90;;;;;;5083732;28;20337;-71
2022/10/02 09:22:37;;;;;;;10.40;1.75;;;14.70;99.90;;;;;;5077736;28;20478;-71
2022/10/02 09:25:21;;;;;;;9.80;1.85;;;14.60;99.90;;;;;;5097419;28;20048;-70
2022/10/02 09:28:00;;;;;;;7.53;1.25;;;14.50;99.90;;;;;;5098039;28;20106;-70
2022/10/02 09:30:46;;;;;;;8.15;1.65;;;14.50;99.90;;;;;;5074695;28;20203;-71
2022/10/02 09:33:15;;;;;;;8.98;1.33;;;14.40;99.90;;;;;;5079214;28;20052;-71
2022/10/02 09:36:00;;;;;;;9.00;1.80;;;14.40;99.90;;;;;;5084191;28;20411;-71
2022/10/02 09:38:52;;;;;;;6.57;1.48;;;14.50;99.90;;;;;;5072756;28;20097;-71
2022/10/02 09:41:52;;;;;;;10.68;1.70;;;14.60;99.90;;;;;;5083206;27;20048;-71
2022/10/02 09:44:57;;;;;;;7.45;1.30;;;14.70;99.90;;;;;;5071109;28;20097;-71
2022/10/02 09:47:52;;;;;;;13.65;1.95;;;14.80;99.90;;;;;;5065096;28;20543;-71
2022/10/02 09:50:47;;;;;;;6.38;1.52;;;14.80;99.90;;;;;;5076257;28;20084;-71
2022/10/02 09:53:46;;;;;;;10.32;1.52;;;15.00;99.90;;;;;;5060957;28;20124;-71
2022/10/02 09:56:44;;;;;;;4.85;1.20;;;15.10;99.90;;;;;;5073091;28;20062;-71
2022/10/02 09:59:25;;;;;;;5.75;1.05;;;15.20;99.90;;;;;;5071837;28;20099;-71
2022/10/02 10:02:18;;;;;;;6.90;1.45;;;15.40;99.90;;;;;;5088813;28;20452;-71
2022/10/02 10:05:02;;;;;;;6.60;1.05;;;15.40;99.90;;;;;;5067405;28;20043;-72
2022/10/02 10:07:47;;;;;;;6.93;1.40;;;15.40;99.90;;;;;;5083852;28;20035;-71
2022/10/02 10:10:25;;;;;;;7.13;1.70;;;15.60;99.90;;;;;;5064603;28;20084;-71
2022/10/02 10:13:16;;;;;;;9.77;1.42;;;15.70;99.90;;;;;;4999948;28;20271;-73
2022/10/02 10:16:29;;;;;;;7.85;1.58;;;15.80;99.90;;;;;;5076831;28;20927;-73
2022/10/02 10:19:09;;;;;;;10.10;2.05;;;15.90;99.90;;;;;;5095667;28;20028;-72
2022/10/02 10:22:03;;;;;;;7.65;1.40;;;15.90;99.90;;;;;;5082838;28;20370;-72
2022/10/02 10:24:51;;;;;;;10.05;1.50;;;16.00;99.90;;;;;;5065120;28;20378;-72
2022/10/02 10:27:32;;;;;;;12.93;1.63;;;16.10;99.90;;;;;;5023016;28;20890;-74
2022/10/02 10:30:20;;;;;;;9.35;1.20;;;16.10;99.90;;;;;;5095023;28;20101;-72
2022/10/02 10:33:08;;;;;;;12.07;1.98;;;15.90;99.90;;;;;;5083054;28;20047;-72
2022/10/02 10:35:47;;;;;;;9.40;1.25;;;15.80;99.90;;;;;;5078175;28;20040;-72
2022/10/02 10:38:41;;;;;;;7.18;1.02;;;15.70;99.90;;;;;;5060995;28;20368;-74
2022/10/02 10:41:56;;;;;;;6.00;1.00;;;15.70;99.90;;;;;;5049509;28;20054;-71
2022/10/02 10:44:59;;;;;;;13.73;1.80;;;15.90;99.90;;;;;;5080473;28;20146;-71
2022/10/02 10:47:39;;;;;;;9.10;1.45;;;15.90;99.90;;;;;;4999261;28;20984;-73
2022/10/02 10:50:37;;;;;;;14.43;1.73;;;15.90;99.90;;;;;;5060863;28;20107;-71
2022/10/02 10:53:51;;;;;;;6.55;1.35;;;15.80;99.90;;;;;;5046094;28;20446;-73
2022/10/02 10:56:48;;;;;;;4.47;0.75;;;15.70;99.90;;;;;;4950010;28;21078;-73
2022/10/02 10:59:33;;;;;;;8.32;1.25;;;15.60;99.90;;;;;;5086536;28;20038;-72
2022/10/02 11:02:18;;;;;;;5.28;1.15;;;15.50;99.90;;;;;;5082702;28;20031;-72
2022/10/02 11:05:17;;;;;;;;;;;;;;;;;;;;;
2022/10/02 11:08:13;;;;;;;5.55;1.33;;;15.30;99.90;;;;;;4996981;28;20044;-73
2022/10/02 11:11:16;;;;;;;6.03;1.55;;;15.40;99.90;;;;;;5059598;28;20048;-72
2022/10/02 11:13:56;;;;;;;7.28;1.50;;;15.40;99.90;;;;;;5075129;28;20048;-72
2022/10/02 11:16:31;;;;;;;6.97;1.52;;;15.40;99.90;;;;;;5059933;28;20511;-73
2022/10/02 11:19:22;;;;;;;5.03;1.33;;;15.50;99.90;;;;;;5056092;28;20043;-74
2022/10/02 11:22:09;;;;;;;8.13;1.38;;;15.60;99.90;;;;;;5038267;28;20127;-73
2022/10/02 11:24:41;;;;;;;6.45;1.20;;;15.80;99.90;;;;;;5068755;28;20047;-72
2022/10/02 11:27:29;;;;;;;8.05;1.20;;;16.00;99.90;;;;;;5064902;28;20123;-72
2022/10/02 11:30:19;;;;;;;5.55;0.77;;;16.20;99.90;;;;;;5066995;28;20040;-74
2022/10/02 11:33:14;;;;;;;6.05;1.45;;;16.40;99.90;;;;;;5064492;28;20058;-73
2022/10/02 11:35:51;;;;;;;7.45;1.33;;;16.60;99.90;;;;;;5066994;28;20040;-73
2022/10/02 11:38:22;;;;;;;9.70;1.02;;;16.60;99.90;;;;;;5058524;28;20044;-74
2022/10/02 11:41:15;;;;;;;6.95;0.95;;;16.60;99.90;;;;;;5075992;28;20070;-73
2022/10/02 11:44:23;;;;;;;6.28;0.80;;;16.50;99.90;;;;;;5062634;28;20051;-74
2022/10/02 11:47:27;;;;;;;6.32;1.10;;;16.60;99.90;;;;;;5016368;28;20426;-74
2022/10/02 11:50:23;;;;;;;5.97;1.00;;;16.80;99.90;;;;;;4996004;28;20344;-77
2022/10/02 11:53:10;;;;;;;5.63;1.25;;;16.60;99.90;;;;;;5052408;28;20135;-76
2022/10/02 11:56:02;;;;;;;3.67;0.90;;;16.50;99.90;;;;;;5072470;28;20096;-75
2022/10/02 11:58:44;;;;;;;8.18;1.52;;;16.30;99.90;;;;;;5079860;28;20050;-76
2022/10/02 12:01:21;;;;;;;6.03;0.98;;;16.20;99.90;;;;;;5074685;28;20054;-74
2022/10/02 12:04:03;;;;;;;4.22;1.08;;;16.20;99.90;;;;;;5096137;28;20569;-76
2022/10/02 12:06:29;;;;;;;9.70;1.05;;;16.10;99.90;;;;;;5080030;28;20444;-77
2022/10/02 12:09:08;;;;;;;4.03;0.90;;;16.10;99.90;;;;;;5069954;28;20093;-78
2022/10/02 12:11:42;;;;;;;6.03;1.08;;;16.10;99.90;;;;;;5092545;28;20060;-78
2022/10/02 12:14:21;;;;;;;5.80;0.85;;;16.20;99.90;;;;;;5064655;28;20557;-79
2022/10/02 12:17:42;;;;;;;14.75;1.65;;;16.20;99.90;;;;;;5061634;28;20051;-74
2022/10/02 12:27:06;;;;;;;5.88;0.75;;;16.30;99.90;;;;;;5071354;28;20709;-74
2022/10/02 12:29:47;;;;;;;3.65;0.90;;;16.60;99.90;;;;;;5091134;28;20044;-74
2022/10/02 12:32:52;;;;;;;4.20;0.93;;;16.90;99.90;;;;;;5076855;28;20127;-73
2022/10/02 12:35:49;;;;;;;6.57;1.00;;;17.00;99.90;;;;;;5070532;28;20044;-73
2022/10/02 12:38:27;;;;;;;7.70;1.75;;;17.20;99.90;;;;;;5078065;28;20519;-73
2022/10/02 12:41:32;;;;;;;6.68;0.80;;;17.30;99.90;;;;;;5080032;28;20520;-73
2022/10/02 12:43:58;;;;;;;8.10;1.13;;;17.30;99.90;;;;;;5066454;28;20415;-73
2022/10/02 12:46:29;;;;;;;4.82;1.25;;;17.10;99.90;;;;;;5069858;28;20258;-77
2022/10/02 12:49:34;;;;;;;8.55;1.33;;;17.00;99.90;;;;;;5084596;28;20037;-77
2022/10/02 12:52:30;;;;;;;6.10;1.27;;;16.80;99.90;;;;;;5054295;28;20106;-78
2022/10/02 12:55:14;;;;;;;6.15;1.10;;;16.60;99.90;;;;;;5072587;28;20305;-79
2022/10/02 12:57:53;;;;;;;7.38;0.80;;;16.70;99.90;;;;;;5073154;28;20118;-75
2022/10/02 13:00:22;;;;;;;8.48;1.00;;;16.70;99.90;;;;;;5072009;28;20354;-77
2022/10/02 13:03:12;;;;;;;6.82;1.13;;;16.70;99.90;;;;;;5072185;28;20055;-76
2022/10/02 13:05:39;;;;;;;9.25;1.30;;;16.60;99.90;;;;;;5066897;28;20365;-75
2022/10/02 13:08:24;;;;;;;6.65;1.98;;;16.50;99.90;;;;;;5066227;28;20172;-75
2022/10/02 13:11:07;;;;;;;7.10;1.00;;;16.40;99.90;;;;;;5064734;28;20036;-76
2022/10/02 13:13:59;;;;;;;8.88;1.60;;;16.30;99.90;;;;;;5066009;28;20045;-76
2022/10/02 13:16:43;;;;;;;7.60;1.25;;;16.40;99.90;;;;;;5076404;28;20848;-76
2022/10/02 13:19:29;;;;;;;5.88;1.08;;;16.50;99.90;;;;;;5064440;28;20098;-76
2022/10/02 13:22:08;;;;;;;6.03;1.20;;;16.70;99.90;;;;;;5074409;28;20441;-77
2022/10/02 13:25:03;;;;;;;5.03;1.20;;;16.80;99.90;;;;;;5072451;28;20125;-75
2022/10/02 13:27:50;;;;;;;4.60;0.93;;;16.80;99.90;;;;;;5061542;28;20060;-77
2022/10/02 13:30:18;;;;;;;4.75;0.88;;;16.90;99.90;;;;;;5064107;28;20443;-75
2022/10/02 13:32:51;;;;;;;6.03;0.80;;;17.00;99.90;;;;;;5076031;28;20052;-74
2022/10/02 13:35:47;;;;;;;8.32;0.90;;;17.20;99.90;;;;;;5066244;28;20037;-75
2022/10/02 13:38:28;;;;;;;4.68;1.77;;;17.30;99.90;;;;;;5076257;28;20051;-74
2022/10/02 13:41:32;;;;;;;4.18;0.95;;;17.30;99.90;;;;;;5066634;28;20040;-74
2022/10/02 13:44:35;;;;;;;6.28;1.10;;;17.20;99.90;;;;;;5073763;28;20036;-74
2022/10/02 13:47:10;;;;;;;6.30;1.40;;;17.20;99.90;;;;;;5070814;28;20393;-74
2022/10/02 13:50:06;;;;;;;10.07;1.23;;;17.20;99.90;;;;;;5073177;28;20068;-73
2022/10/02 13:52:48;;;;;;;8.55;1.52;;;17.20;99.90;;;;;;5074391;28;20036;-74
2022/10/02 13:55:27;;;;;;;3.17;1.10;;;17.40;99.90;;;;;;5081670;28;20450;-74
2022/10/02 13:57:53;;;;;;;10.48;1.30;;;17.60;99.90;;;;;;5082365;28;20039;-73
2022/10/02 14:00:39;;;;;;;7.88;1.38;;;17.50;99.90;;;;;;5076942;28;20280;-74
2022/10/02 14:03:42;;;;;;;6.80;1.35;;;17.40;99.90;;;;;;5074352;28;20047;-76
2022/10/02 14:06:42;;;;;;;6.20;1.25;;;17.20;99.90;;;;;;5063608;28;20072;-73
2022/10/02 14:09:22;;;;;;;7.03;1.33;;;17.10;99.90;;;;;;5076531;28;20052;-73
2022/10/02 14:12:13;;;;;;;3.08;0.85;;;17.20;99.90;;;;;;5076538;28;20173;-74
2022/10/02 14:14:55;;;;;;;5.32;1.30;;;17.20;99.90;;;;;;5073151;28;20079;-74
2022/10/02 14:17:50;;;;;;;8.38;1.10;;;17.30;99.90;;;;;;5089941;22;20056;-79
2022/10/02 14:20:22;;;;;;;8.57;3.65;;;17.30;99.90;;;;;;5047853;28;20115;-81
2022/10/02 14:23:02;;;;;;;6.15;1.50;;;17.30;99.90;;;;;;5042543;28;21928;-83